Flight Track Log - Related Links

Times and Time Zones

All times are in EST time to prevent confusion due to time zone crossing. See the EJA831 flight status page for this flight to view local times or setup timezone preferences in your user account.

Time Position Orientation Groundspeed Altitude Reporting Facility
EST Latitude Longitude Course Direction KTS MPH feet Rate Location/Type
Tue 07:01:38 AM 35.0603 -85.1928 351° North 225 259 2,500  Level Memphis Center
Tue 07:02:39 AM 35.1206 -85.2044 351° North 231 266 5,400 3,719 Climbing Memphis Center
Tue 07:03:39 AM 35.1581 -85.2542 313° West 203 234 10,000 2,300 Climbing Memphis Center
Tue 07:04:39 AM 35.2000 -85.3156 310° West 231 266 10,000 1,041 Level Memphis Center
Tue 07:05:40 AM 35.2406 -85.3717 312° West 222 255 12,100 1,835 Climbing Memphis Center
Tue 07:06:40 AM 35.2847 -85.4358 310° West 238 274 13,700 2,083 Climbing Memphis Center
Tue 07:07:41 AM 35.3394 -85.5150 310° West 290 334 16,300 2,529 Climbing Memphis Center
Tue 07:08:41 AM 35.3931 -85.5931 310° West 297 342 18,800 2,529 Climbing Memphis Center
Tue 07:09:42 AM 35.4478 -85.6706 311° West 299 344 21,400 2,430 Climbing Memphis Center
Tue 07:10:42 AM 35.5006 -85.7497 309° West 299 344 23,700 2,132 Climbing Memphis Center
Tue 07:11:43 AM 35.5561 -85.8292 311° West 303 349 25,700 1,736 Climbing Memphis Center
Tue 07:12:43 AM 35.6114 -85.9097 310° West 306 352 27,200 1,150 Climbing Memphis Center
Tue 07:13:43 AM 35.6617 -85.9964 306° West 320 368 28,000 545 Climbing Memphis Center
Tue 07:14:44 AM 35.7067 -86.0964 299° West 327 376 28,300 1,190 Climbing Memphis Center
Tue 07:15:44 AM 35.7508 -86.1964 299° West 330 380 30,400 2,033 Climbing Memphis Center
Tue 07:16:45 AM 35.7925 -86.2861 300° West 310 357 32,400 1,587 Climbing Memphis Center
Tue 07:17:45 AM 35.8328 -86.3733 300° West 294 338 33,600 793 Climbing Memphis Center
Tue 07:18:46 AM 35.8753 -86.4656 300° West 301 346 34,000 -446 Climbing Memphis Center
Tue 07:19:46 AM 35.9186 -86.5614 299° West 312 359 32,700 -1,388 Descending Memphis Center
Tue 07:20:47 AM 35.9600 -86.6525 299° West 305 351 31,200 -1,289 Descending Memphis Center
Tue 07:21:47 AM 36.0031 -86.7478 299° West 310 357 30,100 -595 Descending Memphis Center
Tue 07:22:48 AM 36.0475 -86.8469 299° West 321 369 30,000 -50 Descending Memphis Center
Tue 07:23:48 AM 36.0950 -86.9503 300° West 334 384 30,000  Level Memphis Center
Tue 07:24:48 AM 36.1397 -87.0514 299° West 332 382 30,000  Level Memphis Center
Tue 07:25:49 AM 36.1847 -87.1514 299° West 328 377 30,000  Level Memphis Center
Tue 07:26:49 AM 36.2297 -87.2519 299° West 329 379 30,000  Level Memphis Center
Tue 07:27:50 AM 36.2753 -87.3536 299° West 332 382 30,000  Level Memphis Center
Tue 07:28:50 AM 36.3203 -87.4547 299° West 331 381 30,000  Level Memphis Center
Tue 07:29:51 AM 36.3647 -87.5567 298° West 332 382 30,000  Level Memphis Center
Tue 07:30:51 AM 36.4100 -87.6581 299° West 332 382 30,000  Level Memphis Center
Tue 07:31:52 AM 36.4533 -87.7586 298° West 329 379 30,000  Level Memphis Center
Tue 07:32:53 AM 36.4972 -87.8572 299° West 326 375 30,000  Level Memphis Center
Tue 07:33:53 AM 36.5417 -87.9592 299° West 330 380 30,000  Level Memphis Center
Tue 07:34:54 AM 36.5850 -88.0597 298° West 328 377 30,000  Level Memphis Center
Tue 07:35:54 AM 36.6219 -88.1450 298° West 323 372 30,000  Level Memphis Center
Tue 07:36:55 AM 36.6653 -88.2442 299° West 325 374 30,000  Level Memphis Center
Tue 07:37:55 AM 36.7072 -88.3414 298° West 321 369 30,000  Level Memphis Center
Tue 07:38:56 AM 36.7506 -88.4394 299° West 323 372 30,000  Level Memphis Center
Tue 07:39:56 AM 36.7917 -88.5367 298° West 320 368 30,000  Level Memphis Center
Tue 07:40:57 AM 36.8331 -88.6328 298° West 317 365 30,000  Level Memphis Center
Tue 07:41:58 AM 36.8808 -88.7464 298° West 312 359 30,000  Level Memphis Center
Tue 07:42:58 AM 36.9197 -88.8378 298° West 304 350 30,000  Level Memphis Center
Tue 07:43:59 AM 36.9542 -88.9192 298° West 277 319 30,000  Level Memphis Center
Tue 07:45:00 AM 36.9878 -88.9994 298° West 265 305 30,000  Level Memphis Center
Tue 07:46:00 AM 37.0231 -89.0817 298° West 267 307 30,000  Level Memphis Center
Tue 07:47:01 AM 37.0589 -89.1669 298° West 275 316 30,000  Level Memphis Center
Tue 07:48:02 AM 37.0958 -89.2575 297° West 286 329 30,000 -446 Level Memphis Center
Tue 07:49:02 AM 37.1358 -89.3517 298° West 301 346 29,100 -1,046 Descending Memphis Center
Tue 07:49:51 AM 37.1669 -89.4275 297° West 303 349 28,100 -1,297 Descending Kansas City Center
Tue 07:50:53 AM 37.2058 -89.5217 297° West 304 350 26,700 -1,024 Descending Kansas City Center
Tue 07:51:54 AM 37.2672 -89.6003 314° West 337 388 26,000 -344 Descending Kansas City Center
Tue 07:52:55 AM 37.3653 -89.6469 339° North 372 428 26,000 -738 Level Kansas City Center
Tue 07:53:56 AM 37.4603 -89.7003 336° Northwest 373 429 24,500 -1,650 Descending Kansas City Center
Tue 07:54:55 AM 37.5514 -89.7494 337° Northwest 361 415 22,700 -1,950 Descending Kansas City Center
Tue 07:55:56 AM 37.6500 -89.8039 336° Northwest 347 399 20,600 -1,820 Descending Kansas City Center
Tue 07:56:57 AM 37.7278 -89.8475 336° Northwest 314 361 19,000 -1,426 Descending Kansas City Center
Tue 07:57:58 AM 37.8092 -89.8922 337° Northwest 318 366 17,700 -1,463 Descending Kansas City Center
Tue 07:59:00 AM 37.8922 -89.9378 337° Northwest 305 351 16,000 -1,574 Descending Kansas City Center
Tue 08:00:00 AM 37.9681 -89.9792 337° Northwest 298 343 14,500 -1,500 Descending Kansas City Center
Tue 08:01:00 AM 38.0403 -90.0200 336° Northwest 287 330 13,000 -1,403 Descending Kansas City Center
Tue 08:02:04 AM 38.1061 -90.0564 336° Northwest 284 327 11,600 -1,403 Descending Kansas City Center
Tue 08:03:04 AM 38.1728 -90.0775 346° North 262 302 10,100 -1,500 Descending Kansas City Center
Tue 08:04:04 AM 38.2403 -90.0925 350° North 250 288 8,600 -1,033 Descending Kansas City Center
Tue 08:05:06 AM 38.3081 -90.1058 351° North 247 284 8,000 -290 Descending Kansas City Center
Tue 08:06:08 AM 38.3764 -90.1219 350° North 249 287 8,000 -300 Level Kansas City Center
Tue 08:07:06 AM 38.4600 -90.1394 351° North 254 292 7,400 -1,361 Descending Kansas City Center
Tue 08:08:07 AM 38.5233 -90.1528 351° North 242 278 5,300 -1,721 Descending Kansas City Center
Tue 08:09:08 AM 38.5861 -90.1667 350° North 235 270 3,900 -829 Descending Kansas City Center
Tue 08:10:10 AM 38.6419 -90.1775 351° North 216 249 3,600 -339 Descending Kansas City Center
Tue 08:11:12 AM 38.6769 -90.2119 322° Northwest 180 207 3,200 -683 Descending Kansas City Center
Tue 08:12:13 AM 38.6978 -90.2561 301° West 159 183 2,200 -787 Descending Kansas City Center
Tue 08:13:14 AM 38.7128 -90.2878 301° West 122 140 1,600 -541 Descending Kansas City Center
Tue 08:14:15 AM 38.7278 -90.3158 304° West 104 120 1,100 -492 Descending Kansas City Center
Tue 08:15:16 AM 38.7439 -90.3503 301° West 103 119 600 -492 Descending Kansas City Center

Login

Don't have an account? Register now (free) for customized features, flight alerts, and more!